Time;durP1;ratioP1;P1;durP2;ratioP2;P2;SDS_P1;SDS_P2;PMS_P1;PMS_P2;Temp;Humidity;BMP_temperature;BMP_pressure;BME280_temperature;BME280_humidity;BME280_pressure;Samples;Min_cycle;Max_cycle;Signal;HPM_P1;HPM_P2
2023/03/06 00:02:18;;;;;;;2.73;1.50;;;3.50;76.80;;;;;;5054961;28;20708;-75
2023/03/06 00:04:44;;;;;;;1.60;1.50;;;3.50;76.90;;;;;;5032229;28;20218;-76
2023/03/06 00:07:10;;;;;;;3.77;1.60;;;3.50;77.00;;;;;;5052085;28;20236;-75
2023/03/06 00:09:35;;;;;;;1.50;1.40;;;3.50;77.10;;;;;;5053643;28;20277;-75
2023/03/06 00:12:01;;;;;;;3.50;1.13;;;3.50;77.20;;;;;;5057581;28;20184;-75
2023/03/06 00:14:27;;;;;;;1.53;1.33;;;3.50;77.30;;;;;;5052990;28;20883;-75
2023/03/06 00:16:55;;;;;;;1.37;1.27;;;3.50;77.30;;;;;;5043300;28;20191;-75
2023/03/06 00:19:22;;;;;;;1.17;1.13;;;3.50;77.30;;;;;;5045430;28;20194;-75
2023/03/06 00:21:48;;;;;;;2.13;1.60;;;3.50;77.30;;;;;;5031824;28;20545;-75
2023/03/06 00:24:14;;;;;;;2.00;1.20;;;3.50;77.30;;;;;;5049853;28;20247;-75
2023/03/06 00:26:40;;;;;;;1.77;1.67;;;3.50;77.30;;;;;;5048469;28;20734;-75
2023/03/06 00:29:07;;;;;;;1.83;1.20;;;3.40;77.40;;;;;;5052563;28;20653;-75
2023/03/06 00:31:34;;;;;;;1.93;1.80;;;3.40;77.30;;;;;;5058130;28;20188;-75
2023/03/06 00:34:00;;;;;;;1.10;1.10;;;3.40;77.20;;;;;;5034776;28;20560;-74
2023/03/06 00:36:26;;;;;;;2.23;1.90;;;3.40;77.20;;;;;;5050296;28;20180;-75
2023/03/06 00:38:52;;;;;;;2.87;1.53;;;3.40;77.30;;;;;;5050523;28;20186;-75
2023/03/06 00:41:18;;;;;;;2.50;1.30;;;3.40;77.40;;;;;;5049159;28;20183;-76
2023/03/06 00:43:44;;;;;;;4.20;1.37;;;3.40;77.40;;;;;;5049980;28;20190;-76
2023/03/06 00:46:10;;;;;;;2.03;1.50;;;3.40;77.40;;;;;;5051320;28;20219;-76
2023/03/06 00:48:35;;;;;;;2.10;1.47;;;3.40;77.60;;;;;;5051805;28;20237;-75
2023/03/06 00:51:01;;;;;;;1.63;1.50;;;3.40;77.40;;;;;;5051537;28;20680;-76
2023/03/06 00:53:27;;;;;;;1.93;1.47;;;3.40;77.20;;;;;;5053069;28;20195;-75
2023/03/06 00:55:52;;;;;;;1.23;1.13;;;3.50;77.10;;;;;;5055955;28;20192;-75
2023/03/06 00:58:18;;;;;;;1.40;1.30;;;3.50;76.90;;;;;;5034483;28;20187;-75
2023/03/06 01:00:44;;;;;;;3.80;1.20;;;3.50;76.90;;;;;;5050868;28;20270;-75
2023/03/06 01:03:10;;;;;;;1.23;1.17;;;3.50;76.90;;;;;;5051649;28;20206;-75
2023/03/06 01:05:37;;;;;;;3.23;1.07;;;3.60;76.70;;;;;;5049180;28;20214;-75
2023/03/06 01:08:03;;;;;;;1.53;1.43;;;3.60;76.40;;;;;;5050517;28;20180;-75
2023/03/06 01:10:29;;;;;;;6.17;1.43;;;3.60;76.50;;;;;;5052572;28;20183;-75
2023/03/06 01:12:55;;;;;;;1.57;1.43;;;3.70;76.30;;;;;;5048268;28;20194;-75
2023/03/06 01:15:21;;;;;;;1.33;1.23;;;3.70;76.30;;;;;;5049215;28;20190;-75
2023/03/06 01:17:50;;;;;;;1.27;1.17;;;3.70;76.40;;;;;;5053214;28;20251;-75
2023/03/06 01:20:17;;;;;;;3.07;1.93;;;3.70;76.20;;;;;;5051013;28;20239;-76
2023/03/06 01:22:43;;;;;;;2.50;1.57;;;3.70;76.00;;;;;;5034072;28;20198;-75
2023/03/06 01:25:09;;;;;;;1.30;1.20;;;3.70;75.90;;;;;;5048036;28;20215;-75
2023/03/06 01:27:34;;;;;;;1.80;1.33;;;3.70;76.00;;;;;;5053322;28;20293;-75
2023/03/06 01:30:00;;;;;;;1.30;1.30;;;3.70;75.70;;;;;;5050487;28;20259;-75
2023/03/06 01:32:26;;;;;;;2.63;1.17;;;3.80;75.60;;;;;;5048302;28;20188;-75
2023/03/06 01:34:52;;;;;;;2.00;0.90;;;3.80;75.70;;;;;;5047180;28;20186;-75
2023/03/06 01:37:18;;;;;;;1.23;1.10;;;3.80;75.60;;;;;;5045709;28;20218;-75
2023/03/06 01:39:43;;;;;;;1.43;1.13;;;3.70;75.70;;;;;;5043629;28;20211;-75
2023/03/06 01:42:09;;;;;;;1.57;1.20;;;3.70;75.90;;;;;;5051098;28;20287;-75
2023/03/06 01:44:35;;;;;;;3.40;1.93;;;3.70;75.90;;;;;;5052272;28;20208;-74
2023/03/06 01:47:01;;;;;;;1.33;0.93;;;3.70;76.10;;;;;;5050999;28;20245;-75
2023/03/06 01:49:37;;;;;;;3.00;1.33;;;3.70;75.90;;;;;;5050285;28;20190;-75
2023/03/06 01:52:08;;;;;;;2.17;0.87;;;3.70;75.70;;;;;;5049253;28;20183;-74
2023/03/06 01:54:48;;;;;;;1.47;1.37;;;3.70;76.00;;;;;;5049272;28;20271;-74
2023/03/06 01:57:18;;;;;;;1.77;1.27;;;3.70;76.00;;;;;;5051611;28;20207;-74
2023/03/06 01:59:48;;;;;;;1.60;1.40;;;3.70;76.00;;;;;;5049834;28;20179;-74
2023/03/06 02:02:14;;;;;;;1.17;1.17;;;3.60;76.10;;;;;;5050534;28;21836;-75
2023/03/06 02:04:41;;;;;;;1.17;1.07;;;3.70;75.60;;;;;;5050541;28;20649;-74
2023/03/06 02:07:08;;;;;;;1.97;1.53;;;3.60;75.90;;;;;;5050463;28;20201;-74
2023/03/06 02:09:35;;;;;;;1.27;1.20;;;3.60;75.90;;;;;;5047154;28;20187;-74
2023/03/06 02:12:06;;;;;;;1.70;0.97;;;3.60;75.90;;;;;;5036360;28;20823;-75
2023/03/06 02:14:32;;;;;;;4.90;1.50;;;3.60;76.10;;;;;;5056537;28;20266;-75
2023/03/06 02:16:58;;;;;;;2.40;2.10;;;3.60;76.10;;;;;;5053346;28;20258;-76
2023/03/06 02:19:49;;;;;;;2.60;1.30;;;3.60;76.20;;;;;;5052611;28;20652;-75
2023/03/06 02:22:15;;;;;;;5.70;1.83;;;3.60;76.20;;;;;;5049009;28;20180;-76
2023/03/06 02:25:07;;;;;;;2.43;2.03;;;3.50;76.40;;;;;;5045433;28;20211;-75
2023/03/06 02:27:33;;;;;;;2.73;1.30;;;3.50;76.70;;;;;;4994891;28;20276;-75
2023/03/06 02:29:58;;;;;;;2.53;1.53;;;3.50;76.70;;;;;;4988789;28;20312;-75
2023/03/06 02:32:24;;;;;;;1.00;0.97;;;3.50;76.80;;;;;;4991767;28;20875;-75
2023/03/06 02:34:54;;;;;;;5.47;1.23;;;3.40;76.90;;;;;;4995168;28;20606;-76
2023/03/06 02:37:21;;;;;;;1.70;0.90;;;3.40;77.10;;;;;;4988528;28;20193;-75
2023/03/06 02:39:52;;;;;;;2.10;1.13;;;3.40;77.20;;;;;;4985925;28;20354;-76
2023/03/06 02:42:24;;;;;;;1.70;1.30;;;3.30;77.30;;;;;;4983104;28;20675;-76
2023/03/06 02:44:52;;;;;;;1.77;1.23;;;3.20;77.40;;;;;;4990221;28;20239;-76
2023/03/06 02:47:18;;;;;;;1.37;1.20;;;3.20;77.50;;;;;;4987683;28;20217;-76
2023/03/06 02:49:44;;;;;;;1.67;1.57;;;3.20;77.40;;;;;;4996649;28;20273;-76
2023/03/06 02:52:10;;;;;;;10.30;1.33;;;3.20;77.30;;;;;;4969911;28;20197;-75
2023/03/06 02:54:35;;;;;;;1.13;1.03;;;3.20;77.20;;;;;;4987680;28;20186;-76
2023/03/06 02:57:01;;;;;;;1.43;0.70;;;3.20;77.40;;;;;;4989388;28;20200;-75
2023/03/06 02:59:27;;;;;;;2.90;1.70;;;3.20;77.90;;;;;;4972005;28;20220;-75
2023/03/06 03:01:53;;;;;;;1.60;1.43;;;3.20;77.60;;;;;;4989370;28;20185;-75
2023/03/06 03:04:18;;;;;;;1.57;1.10;;;3.10;77.60;;;;;;5010502;28;20226;-75
2023/03/06 03:06:44;;;;;;;4.40;1.80;;;3.10;78.00;;;;;;5049077;28;20179;-76
2023/03/06 03:09:10;;;;;;;1.80;1.07;;;3.10;78.10;;;;;;5041788;28;20181;-76
2023/03/06 03:11:35;;;;;;;1.27;1.23;;;3.10;78.50;;;;;;5054051;28;20245;-75
2023/03/06 03:14:01;;;;;;;1.27;1.23;;;3.10;78.30;;;;;;5047474;28;20266;-75
2023/03/06 03:16:27;;;;;;;2.40;1.20;;;3.10;78.30;;;;;;5049640;28;20179;-76
2023/03/06 03:18:52;;;;;;;1.43;1.33;;;3.10;78.70;;;;;;5041217;28;20191;-76
2023/03/06 03:21:18;;;;;;;2.20;0.97;;;3.10;78.60;;;;;;5049201;28;20796;-75
2023/03/06 03:23:44;;;;;;;2.33;0.93;;;3.10;78.70;;;;;;5043672;28;20263;-75
2023/03/06 03:26:16;;;;;;;0.87;0.87;;;3.00;78.70;;;;;;5044308;28;20212;-76
2023/03/06 03:28:42;;;;;;;1.27;1.13;;;3.00;78.90;;;;;;5043859;28;20182;-76
2023/03/06 03:31:09;;;;;;;1.50;1.07;;;3.00;78.80;;;;;;5051449;28;20814;-76
2023/03/06 03:33:35;;;;;;;4.67;1.30;;;3.10;78.60;;;;;;5048606;28;20573;-75
2023/03/06 03:36:03;;;;;;;1.63;1.17;;;3.00;78.70;;;;;;5049541;28;20187;-75
2023/03/06 03:38:30;;;;;;;1.17;1.13;;;3.00;78.70;;;;;;5048765;28;20734;-76
2023/03/06 03:40:55;;;;;;;1.53;1.53;;;3.00;78.80;;;;;;5047945;28;20245;-76
2023/03/06 03:43:21;;;;;;;2.03;1.60;;;3.00;78.90;;;;;;5045666;28;20191;-75
2023/03/06 03:45:47;;;;;;;2.07;1.57;;;2.90;78.90;;;;;;5048778;28;20224;-76
2023/03/06 03:48:13;;;;;;;1.80;1.60;;;2.90;79.20;;;;;;5049872;28;20207;-75
2023/03/06 03:50:39;;;;;;;2.90;2.03;;;2.90;79.30;;;;;;5049850;28;20957;-75
2023/03/06 03:53:05;;;;;;;1.97;1.10;;;2.90;79.40;;;;;;5048304;28;20211;-75
2023/03/06 03:55:30;;;;;;;3.47;1.70;;;2.90;79.20;;;;;;5050919;28;20304;-75
2023/03/06 03:57:56;;;;;;;1.80;1.37;;;2.80;79.40;;;;;;5048211;28;20192;-75
2023/03/06 04:00:22;;;;;;;4.70;2.00;;;2.80;79.40;;;;;;5047181;28;20183;-75
2023/03/06 04:02:48;;;;;;;3.83;2.83;;;2.80;79.80;;;;;;5041832;28;20259;-75
2023/03/06 04:05:14;;;;;;;3.57;2.87;;;2.80;80.10;;;;;;5050812;28;20206;-75
2023/03/06 04:07:41;;;;;;;3.70;2.43;;;2.80;79.90;;;;;;5035306;28;20221;-75
2023/03/06 04:10:08;;;;;;;2.17;1.87;;;2.80;79.90;;;;;;5034328;28;20271;-75
2023/03/06 04:12:35;;;;;;;2.03;1.80;;;2.80;80.00;;;;;;5044404;28;20621;-76
2023/03/06 04:15:01;;;;;;;1.70;1.60;;;2.80;80.30;;;;;;5054019;28;20178;-75
2023/03/06 04:17:27;;;;;;;1.93;1.73;;;2.80;80.60;;;;;;5047851;28;20266;-75
2023/03/06 04:19:53;;;;;;;2.87;1.70;;;2.70;80.60;;;;;;5044208;28;20648;-75
2023/03/06 04:22:19;;;;;;;1.27;1.27;;;2.70;80.70;;;;;;5043874;28;20237;-75
2023/03/06 04:24:47;;;;;;;1.53;1.43;;;2.70;80.80;;;;;;5050287;28;20240;-74
2023/03/06 04:27:13;;;;;;;2.10;1.53;;;2.70;81.10;;;;;;5030937;28;20518;-74
2023/03/06 04:29:38;;;;;;;1.87;1.73;;;2.70;81.10;;;;;;5046467;28;20175;-75
2023/03/06 04:32:04;;;;;;;2.83;2.17;;;2.70;81.20;;;;;;5043163;28;20771;-74
2023/03/06 04:34:30;;;;;;;2.37;1.60;;;2.70;81.20;;;;;;5046155;28;20692;-75
2023/03/06 04:36:56;;;;;;;1.73;1.30;;;2.70;81.40;;;;;;5043275;28;20654;-76
2023/03/06 04:39:21;;;;;;;2.67;2.00;;;2.70;81.30;;;;;;5048074;28;20183;-75
2023/03/06 04:41:47;;;;;;;2.80;1.83;;;2.70;81.30;;;;;;5047892;28;21443;-76
2023/03/06 04:44:12;;;;;;;2.20;2.03;;;2.80;81.60;;;;;;5051149;28;20633;-76
2023/03/06 04:46:38;;;;;;;3.53;2.27;;;2.80;81.50;;;;;;5043442;28;20687;-76
2023/03/06 04:49:04;;;;;;;3.83;1.77;;;2.90;81.60;;;;;;5031383;28;20183;-75
2023/03/06 04:51:30;;;;;;;3.40;1.87;;;2.90;81.60;;;;;;5046558;28;20184;-75
2023/03/06 04:53:55;;;;;;;2.57;1.70;;;2.90;81.60;;;;;;5052596;28;20204;-76
2023/03/06 04:56:21;;;;;;;4.27;2.60;;;2.90;81.60;;;;;;5051787;28;20195;-75
2023/03/06 04:58:47;;;;;;;3.73;2.33;;;3.00;81.70;;;;;;5050368;28;20645;-75
2023/03/06 05:01:13;;;;;;;3.03;2.77;;;3.00;81.70;;;;;;5047116;28;20187;-75
2023/03/06 05:03:39;;;;;;;3.67;2.33;;;3.00;81.70;;;;;;5050498;28;20664;-75
2023/03/06 05:06:05;;;;;;;2.23;1.93;;;3.00;81.80;;;;;;5044695;28;20216;-78
2023/03/06 05:08:31;;;;;;;5.73;2.27;;;3.00;81.70;;;;;;5053054;28;20188;-77
2023/03/06 05:10:59;;;;;;;3.43;2.40;;;3.00;81.70;;;;;;5053501;28;20558;-77
2023/03/06 05:13:26;;;;;;;3.37;2.30;;;3.00;81.60;;;;;;5054405;28;20188;-77
2023/03/06 05:15:52;;;;;;;2.77;2.00;;;2.90;81.80;;;;;;5047817;28;20188;-76
2023/03/06 05:18:18;;;;;;;5.47;1.93;;;3.00;82.00;;;;;;5050842;28;20275;-76
2023/03/06 05:20:44;;;;;;;3.23;2.27;;;3.00;82.00;;;;;;5050276;28;20202;-74
2023/03/06 05:23:10;;;;;;;2.40;2.27;;;3.00;82.00;;;;;;5044436;28;20632;-76
2023/03/06 05:25:39;;;;;;;2.87;2.27;;;3.10;81.80;;;;;;5046953;28;20323;-77
2023/03/06 05:28:05;;;;;;;2.40;1.97;;;3.00;81.50;;;;;;5045166;28;20190;-73
2023/03/06 05:30:31;;;;;;;2.13;1.27;;;2.90;81.70;;;;;;5047013;28;20184;-74
2023/03/06 05:32:58;;;;;;;2.87;1.80;;;2.90;81.80;;;;;;5051351;28;20202;-74
2023/03/06 05:35:24;;;;;;;2.27;2.00;;;2.90;82.20;;;;;;5045573;28;20222;-75
2023/03/06 05:37:49;;;;;;;3.73;2.47;;;2.90;82.20;;;;;;5051309;28;20211;-77
2023/03/06 05:40:16;;;;;;;1.93;1.70;;;2.90;82.20;;;;;;5048844;28;20607;-78
2023/03/06 05:42:41;;;;;;;2.60;1.63;;;3.00;82.50;;;;;;5046140;28;20183;-77
2023/03/06 05:45:08;;;;;;;3.13;1.47;;;3.10;82.40;;;;;;5055038;28;20215;-75
2023/03/06 05:47:34;;;;;;;5.27;1.63;;;3.10;82.10;;;;;;5054297;28;20294;-76
2023/03/06 05:49:59;;;;;;;1.73;1.63;;;3.20;82.00;;;;;;5048193;28;20183;-77
2023/03/06 05:52:25;;;;;;;1.00;1.00;;;3.30;81.60;;;;;;5049235;28;20191;-76
2023/03/06 05:54:52;;;;;;;1.33;1.30;;;3.40;81.40;;;;;;5044891;28;20206;-75
2023/03/06 05:57:20;;;;;;;2.10;1.87;;;3.40;81.40;;;;;;5047565;28;20188;-78
2023/03/06 05:59:46;;;;;;;4.30;1.73;;;3.50;81.20;;;;;;5054065;28;20221;-75
2023/03/06 06:02:12;;;;;;;4.93;2.40;;;3.60;81.40;;;;;;5052251;28;20190;-75
2023/03/06 06:04:37;;;;;;;4.13;2.13;;;3.60;81.00;;;;;;5052589;28;20207;-75
2023/03/06 06:07:05;;;;;;;3.43;1.83;;;3.60;80.60;;;;;;5053264;28;20187;-75
2023/03/06 06:09:31;;;;;;;5.30;2.83;;;3.70;80.50;;;;;;5050762;28;20557;-76
2023/03/06 06:12:00;;;;;;;2.43;1.80;;;3.70;80.40;;;;;;5055228;28;20909;-76
2023/03/06 06:14:26;;;;;;;1.67;1.53;;;3.80;80.00;;;;;;5048405;28;20183;-76
2023/03/06 06:16:52;;;;;;;2.53;2.20;;;3.80;79.90;;;;;;5051271;28;20184;-75
2023/03/06 06:19:18;;;;;;;1.50;1.50;;;3.90;79.90;;;;;;5051479;28;20180;-75
2023/03/06 06:21:52;;;;;;;3.40;2.47;;;3.90;79.50;;;;;;5054616;28;20299;-75
2023/03/06 06:24:21;;;;;;;4.20;2.10;;;3.90;79.30;;;;;;5048935;28;20171;-75
2023/03/06 06:26:51;;;;;;;2.60;1.57;;;3.90;79.00;;;;;;5045808;28;20761;-75
2023/03/06 06:29:17;;;;;;;1.87;1.47;;;3.90;78.80;;;;;;5049607;28;20289;-75
2023/03/06 06:31:43;;;;;;;2.63;2.17;;;4.00;79.00;;;;;;5053747;28;20262;-76
2023/03/06 06:34:10;;;;;;;4.40;1.63;;;4.00;79.30;;;;;;5053171;28;20194;-76
2023/03/06 06:36:36;;;;;;;1.33;1.23;;;4.10;79.40;;;;;;5054944;28;20188;-75
2023/03/06 06:39:02;;;;;;;1.93;1.70;;;4.10;78.60;;;;;;5057182;28;20762;-76
2023/03/06 06:41:28;;;;;;;2.77;2.23;;;4.20;78.50;;;;;;5051851;28;20175;-75
2023/03/06 06:43:55;;;;;;;2.37;2.00;;;4.20;78.20;;;;;;5053920;28;20261;-75
2023/03/06 06:46:21;;;;;;;3.30;2.10;;;4.30;77.80;;;;;;5052764;28;20250;-75
2023/03/06 06:48:48;;;;;;;1.70;1.63;;;4.30;77.40;;;;;;5055779;28;20190;-76
2023/03/06 06:51:14;;;;;;;2.87;2.60;;;4.30;77.20;;;;;;5051842;28;20184;-75
2023/03/06 06:53:40;;;;;;;2.60;2.40;;;4.30;77.80;;;;;;5048842;28;20180;-75
2023/03/06 06:56:06;;;;;;;2.20;2.03;;;4.30;78.00;;;;;;5048358;28;20236;-76
2023/03/06 06:58:31;;;;;;;2.50;2.27;;;4.40;78.10;;;;;;5054497;28;20190;-75
2023/03/06 07:01:04;;;;;;;3.03;1.63;;;4.40;78.20;;;;;;5051112;28;20180;-76
2023/03/06 07:03:30;;;;;;;1.60;1.53;;;4.50;77.80;;;;;;5054326;28;20172;-76
2023/03/06 07:05:56;;;;;;;2.73;1.50;;;4.50;78.00;;;;;;5052475;28;20704;-76
2023/03/06 07:08:22;;;;;;;2.60;2.30;;;4.60;77.90;;;;;;5052713;28;20171;-76
2023/03/06 07:10:47;;;;;;;2.00;1.47;;;4.60;77.80;;;;;;5028951;28;20191;-75
2023/03/06 07:13:13;;;;;;;2.33;2.13;;;4.70;77.30;;;;;;5051312;28;20179;-75
2023/03/06 07:15:39;;;;;;;2.47;1.90;;;4.80;76.70;;;;;;5050127;28;20180;-76
2023/03/06 07:18:04;;;;;;;4.23;1.87;;;4.90;76.90;;;;;;5051827;28;20727;-76
2023/03/06 07:20:30;;;;;;;2.47;1.97;;;5.00;75.20;;;;;;5047901;28;20273;-75
2023/03/06 07:22:56;;;;;;;2.07;1.87;;;5.00;75.20;;;;;;5049975;28;20211;-76
2023/03/06 07:25:22;;;;;;;1.83;1.43;;;5.10;75.30;;;;;;5048934;28;20241;-75
2023/03/06 07:27:51;;;;;;;2.00;1.87;;;5.10;75.20;;;;;;5049172;28;20573;-75
2023/03/06 07:30:17;;;;;;;2.20;1.97;;;5.20;74.90;;;;;;5050607;28;20616;-75
2023/03/06 07:32:43;;;;;;;2.10;1.63;;;5.30;75.20;;;;;;5056483;28;20175;-76
2023/03/06 07:35:13;;;;;;;2.43;2.00;;;5.40;75.60;;;;;;5046336;28;20242;-76
2023/03/06 07:37:39;;;;;;;2.60;1.77;;;5.50;74.10;;;;;;5052587;28;20206;-75
2023/03/06 07:40:06;;;;;;;4.77;2.10;;;5.70;73.90;;;;;;5050631;28;20174;-76
2023/03/06 07:42:32;;;;;;;2.67;2.07;;;5.70;72.80;;;;;;5034037;28;20336;-76
2023/03/06 07:44:57;;;;;;;2.77;2.27;;;5.80;72.90;;;;;;5051269;28;20210;-76
2023/03/06 07:47:23;;;;;;;2.07;1.90;;;5.90;73.70;;;;;;5049611;28;20184;-76
2023/03/06 07:49:49;;;;;;;5.67;2.67;;;6.10;72.90;;;;;;5046910;28;20249;-76
2023/03/06 07:52:15;;;;;;;7.33;2.70;;;6.20;71.70;;;;;;5051289;28;20190;-76
2023/03/06 07:54:41;;;;;;;3.93;2.47;;;6.50;71.60;;;;;;5047893;28;20615;-76
2023/03/06 07:57:07;;;;;;;3.20;1.87;;;6.90;71.00;;;;;;5048463;28;20172;-76
2023/03/06 07:59:32;;;;;;;5.00;2.73;;;7.50;70.10;;;;;;5050013;28;20213;-76
2023/03/06 08:01:58;;;;;;;4.57;2.87;;;8.20;68.50;;;;;;5050045;28;20223;-76
2023/03/06 08:04:23;;;;;;;5.43;2.67;;;8.90;66.60;;;;;;5046911;28;20192;-76
2023/03/06 08:06:49;;;;;;;6.50;3.37;;;9.80;66.50;;;;;;5051901;28;20231;-76
2023/03/06 08:09:15;;;;;;;4.30;3.90;;;10.70;66.00;;;;;;5046356;28;20659;-76
2023/03/06 08:11:40;;;;;;;5.30;3.40;;;11.70;62.20;;;;;;5054449;28;20193;-76
2023/03/06 08:14:06;;;;;;;6.05;3.53;;;12.50;60.70;;;;;;5054360;28;20258;-76
2023/03/06 08:16:32;;;;;;;7.43;4.45;;;13.10;58.20;;;;;;5054369;28;20171;-76
2023/03/06 08:18:57;;;;;;;6.78;4.78;;;13.40;58.50;;;;;;5051659;28;20178;-75
2023/03/06 08:21:26;;;;;;;5.75;3.88;;;14.00;57.60;;;;;;5050216;28;20187;-76
2023/03/06 08:23:51;;;;;;;7.43;4.65;;;14.40;56.40;;;;;;5052372;28;20661;-76
2023/03/06 08:26:20;;;;;;;8.63;5.03;;;15.00;56.20;;;;;;5055555;28;20277;-75
2023/03/06 08:28:46;;;;;;;9.23;5.30;;;15.60;55.30;;;;;;5054768;28;20180;-76
2023/03/06 08:31:56;;;;;;;9.30;5.47;;;16.30;55.60;;;;;;5057197;28;20186;-78
2023/03/06 08:34:24;;;;;;;8.88;5.28;;;17.20;53.90;;;;;;4957421;28;20609;-76
2023/03/06 08:36:50;;;;;;;7.22;5.80;;;18.00;53.20;;;;;;4958170;28;20190;-76
2023/03/06 08:39:16;;;;;;;6.80;5.57;;;18.40;51.60;;;;;;4954995;28;20267;-75
2023/03/06 08:41:42;;;;;;;15.30;5.88;;;18.80;51.70;;;;;;4957361;28;20191;-76
2023/03/06 08:44:08;;;;;;;10.18;6.45;;;19.20;51.00;;;;;;4956324;28;20202;-76
2023/03/06 08:46:35;;;;;;;9.23;5.95;;;19.50;50.30;;;;;;4959382;28;20232;-76
2023/03/06 08:49:01;;;;;;;7.93;6.18;;;19.50;51.30;;;;;;4956195;28;20242;-76
2023/03/06 08:51:27;;;;;;;13.38;6.82;;;19.40;49.20;;;;;;4959416;28;20241;-75
2023/03/06 08:53:54;;;;;;;10.27;6.30;;;19.50;50.50;;;;;;4958096;28;20228;-76
2023/03/06 08:56:23;;;;;;;10.15;6.20;;;19.50;48.90;;;;;;4955489;28;20215;-76
2023/03/06 08:58:49;;;;;;;10.35;6.90;;;19.60;49.90;;;;;;4960068;28;20183;-75
2023/03/06 09:01:21;;;;;;;12.68;6.35;;;19.90;49.10;;;;;;4951501;28;20782;-76
2023/03/06 09:03:47;;;;;;;9.20;6.43;;;20.10;49.80;;;;;;4957916;28;20218;-75
2023/03/06 09:06:13;;;;;;;11.98;6.65;;;20.30;48.50;;;;;;4958234;28;20191;-76
2023/03/06 09:08:41;;;;;;;8.32;6.80;;;20.40;48.80;;;;;;4952961;28;20183;-75
2023/03/06 09:11:09;;;;;;;12.15;6.85;;;20.30;47.20;;;;;;5050402;28;20696;-76
2023/03/06 09:13:34;;;;;;;9.43;6.50;;;20.60;50.60;;;;;;5053711;28;20182;-76
2023/03/06 09:16:00;;;;;;;6.05;5.30;;;21.20;49.70;;;;;;5046315;28;20215;-75
2023/03/06 09:18:28;;;;;;;8.48;7.20;;;21.90;49.90;;;;;;5056987;28;20183;-76
2023/03/06 09:20:54;;;;;;;9.43;6.55;;;22.70;46.70;;;;;;5057548;28;20286;-76
2023/03/06 09:23:20;;;;;;;10.20;6.68;;;23.50;45.90;;;;;;5054581;28;20247;-75
2023/03/06 09:25:52;;;;;;;9.93;6.68;;;23.70;43.70;;;;;;5027752;28;20778;-75
2023/03/06 09:28:17;;;;;;;10.10;7.10;;;23.80;45.70;;;;;;5056479;28;20321;-76
2023/03/06 09:30:43;;;;;;;11.27;8.18;;;23.80;44.90;;;;;;5053327;28;20755;-76
2023/03/06 09:33:09;;;;;;;7.88;6.13;;;23.40;44.50;;;;;;5050102;28;20214;-76
2023/03/06 09:35:35;;;;;;;8.55;6.28;;;23.20;47.00;;;;;;5050577;28;20242;-76
2023/03/06 09:38:00;;;;;;;9.10;6.25;;;23.50;46.90;;;;;;5046146;28;20213;-76
2023/03/06 09:41:05;;;;;;;7.97;5.90;;;23.90;45.50;;;;;;5052775;28;20191;-76
2023/03/06 09:43:40;;;;;;;6.70;5.93;;;24.10;44.70;;;;;;4969895;28;20190;-75
2023/03/06 09:46:39;;;;;;;9.15;6.50;;;24.40;47.10;;;;;;4973385;28;20209;-75
2023/03/06 09:49:19;;;;;;;6.30;5.60;;;25.20;45.30;;;;;;4913747;29;20202;-76
2023/03/06 09:52:11;;;;;;;8.23;6.22;;;26.10;45.50;;;;;;4916568;29;20235;-75
2023/03/06 09:55:03;;;;;;;9.65;7.18;;;26.90;46.10;;;;;;4911657;29;20231;-76
2023/03/06 09:57:35;;;;;;;8.05;6.82;;;27.60;43.20;;;;;;4911685;29;20184;-76
2023/03/06 10:00:13;;;;;;;7.78;6.97;;;28.20;40.90;;;;;;4916619;29;20200;-76
2023/03/06 10:03:08;;;;;;;10.13;7.10;;;28.10;42.40;;;;;;4914012;29;20263;-76
2023/03/06 10:05:43;;;;;;;7.75;6.90;;;28.00;40.20;;;;;;4896424;29;20196;-76
2023/03/06 10:08:27;;;;;;;8.18;6.38;;;28.20;42.50;;;;;;4889846;29;20307;-75
2023/03/06 10:11:00;;;;;;;7.40;6.40;;;27.90;40.90;;;;;;4890619;29;20799;-76
2023/03/06 10:13:47;;;;;;;9.27;6.88;;;28.20;44.30;;;;;;4897866;29;20668;-76
2023/03/06 10:16:24;;;;;;;10.50;6.57;;;28.30;42.60;;;;;;4893468;29;20233;-75
2023/03/06 10:18:51;;;;;;;8.45;6.78;;;28.60;40.30;;;;;;4891819;29;20281;-76
2023/03/06 10:21:23;;;;;;;6.85;6.22;;;28.00;41.40;;;;;;4928499;29;20230;-76
2023/03/06 10:23:57;;;;;;;6.90;6.25;;;26.90;43.00;;;;;;4932978;29;20231;-76
2023/03/06 10:26:35;;;;;;;10.27;6.80;;;25.90;41.40;;;;;;4964159;28;20210;-75
2023/03/06 10:29:27;;;;;;;9.38;6.13;;;25.00;44.00;;;;;;4986326;28;20583;-77
2023/03/06 10:32:06;;;;;;;9.80;6.07;;;23.80;42.40;;;;;;4987837;28;20653;-76
2023/03/06 10:34:38;;;;;;;6.75;6.10;;;23.00;43.90;;;;;;4987869;28;20278;-74
2023/03/06 10:37:18;;;;;;;7.38;6.68;;;22.70;45.60;;;;;;4987900;28;20189;-76
2023/03/06 10:39:43;;;;;;;7.13;6.22;;;22.40;43.90;;;;;;4985113;28;20189;-75
2023/03/06 10:42:09;;;;;;;9.30;6.32;;;21.80;47.20;;;;;;5017421;28;20196;-75
2023/03/06 10:44:34;;;;;;;10.77;6.53;;;21.30;45.00;;;;;;5049184;28;20575;-75
2023/03/06 10:47:39;;;;;;;6.97;6.32;;;21.10;46.40;;;;;;5052382;28;20299;-75
2023/03/06 10:50:26;;;;;;;8.00;6.68;;;21.10;45.60;;;;;;5056614;28;20194;-76
2023/03/06 10:53:00;;;;;;;8.13;5.95;;;21.20;46.20;;;;;;5052238;28;20183;-76
2023/03/06 10:55:29;;;;;;;8.05;6.45;;;20.90;47.90;;;;;;5048910;28;20276;-75
2023/03/06 10:57:55;;;;;;;7.18;5.97;;;20.50;48.00;;;;;;5048655;28;20198;-75
2023/03/06 11:00:30;;;;;;;6.72;5.60;;;20.40;47.60;;;;;;5045465;28;20588;-75
2023/03/06 11:03:20;;;;;;;6.32;5.70;;;20.60;48.10;;;;;;5050983;28;20459;-75
2023/03/06 11:06:33;;;;;;;6.82;5.53;;;21.40;46.70;;;;;;5048272;28;20187;-75
2023/03/06 11:09:24;;;;;;;7.53;5.38;;;22.30;45.20;;;;;;4946001;28;20321;-75
2023/03/06 11:11:50;;;;;;;7.57;5.82;;;23.10;44.60;;;;;;4943876;28;20182;-75
2023/03/06 11:14:19;;;;;;;7.70;6.53;;;24.00;45.50;;;;;;4943852;28;20727;-75
2023/03/06 11:16:53;;;;;;;6.78;6.03;;;24.70;45.60;;;;;;4945020;28;20222;-75
2023/03/06 11:19:25;;;;;;;7.03;6.30;;;25.00;45.20;;;;;;4943485;29;20187;-75
2023/03/06 11:22:04;;;;;;;8.90;6.03;;;24.70;42.90;;;;;;4924609;28;20194;-76
2023/03/06 11:24:40;;;;;;;8.15;5.53;;;23.80;42.70;;;;;;4943458;28;20218;-76
2023/03/06 11:27:33;;;;;;;5.95;5.07;;;23.10;44.20;;;;;;4943603;28;20198;-76
2023/03/06 11:30:05;;;;;;;6.45;5.60;;;22.50;43.40;;;;;;4927788;28;20183;-76
2023/03/06 11:33:06;;;;;;;8.88;5.47;;;22.00;45.90;;;;;;4943279;28;20281;-77
2023/03/06 11:35:44;;;;;;;6.93;5.13;;;22.00;46.60;;;;;;4855957;29;20257;-75
2023/03/06 11:38:34;;;;;;;11.07;5.22;;;22.20;47.00;;;;;;4861294;29;20197;-75
2023/03/06 11:41:04;;;;;;;8.90;5.45;;;22.10;44.50;;;;;;4944448;28;20222;-75
2023/03/06 11:43:36;;;;;;;8.35;5.50;;;21.80;47.40;;;;;;4944191;28;20182;-75
2023/03/06 11:46:14;;;;;;;5.68;5.03;;;21.90;47.80;;;;;;4947796;28;20202;-75
2023/03/06 11:49:24;;;;;;;7.07;4.53;;;22.50;48.10;;;;;;4952467;28;20301;-76
2023/03/06 11:51:54;;;;;;;8.52;4.75;;;23.50;44.60;;;;;;4930391;29;20209;-76
2023/03/06 11:54:21;;;;;;;10.25;4.70;;;24.10;43.10;;;;;;4934666;29;20299;-76
2023/03/06 11:57:08;;;;;;;5.18;4.72;;;24.80;44.00;;;;;;4933035;29;20226;-76
2023/03/06 11:59:43;;;;;;;8.10;5.18;;;25.80;42.30;;;;;;4932118;29;20288;-75
2023/03/06 12:02:39;;;;;;;5.07;4.60;;;26.40;42.70;;;;;;4929727;29;20266;-76
2023/03/06 12:05:17;;;;;;;4.70;4.30;;;27.30;41.90;;;;;;4928116;29;20640;-75
2023/03/06 12:07:48;;;;;;;6.20;5.38;;;27.90;42.60;;;;;;4934248;28;20195;-76
2023/03/06 12:10:44;;;;;;;5.95;5.35;;;28.30;39.40;;;;;;4928635;28;20184;-76
2023/03/06 12:13:26;;;;;;;5.32;4.60;;;28.20;39.80;;;;;;4980073;28;21049;-76
2023/03/06 12:16:38;;;;;;;3.33;3.03;;;28.40;41.80;;;;;;4969895;28;20224;-75
2023/03/06 12:19:18;;;;;;;4.10;3.78;;;28.30;38.50;;;;;;4921236;29;20199;-76
2023/03/06 12:22:14;;;;;;;3.17;2.80;;;27.40;41.30;;;;;;4923519;29;20231;-75
2023/03/06 12:25:04;;;;;;;5.45;4.68;;;26.70;41.60;;;;;;4923728;29;20203;-75
2023/03/06 12:27:55;;;;;;;2.92;2.53;;;25.70;42.90;;;;;;4931889;28;20670;-76
2023/03/06 12:30:29;;;;;;;4.65;4.22;;;25.10;40.60;;;;;;4985021;28;20586;-75
2023/03/06 12:33:23;;;;;;;2.97;2.78;;;24.80;41.80;;;;;;4991137;28;20185;-76
2023/03/06 12:36:20;;;;;;;2.33;2.22;;;24.70;41.90;;;;;;4991309;28;20787;-75
2023/03/06 12:39:00;;;;;;;1.52;1.50;;;24.10;43.00;;;;;;4938189;29;20652;-75
2023/03/06 12:41:46;;;;;;;2.38;1.92;;;23.40;44.90;;;;;;4934562;29;20195;-75
2023/03/06 12:44:47;;;;;;;2.13;2.03;;;21.90;42.90;;;;;;4936685;29;20207;-75
2023/03/06 12:47:19;;;;;;;2.63;2.42;;;20.60;44.40;;;;;;4939029;29;20203;-75
2023/03/06 12:49:53;;;;;;;2.55;2.40;;;19.60;46.80;;;;;;4935357;29;20282;-76
2023/03/06 12:52:25;;;;;;;2.47;2.08;;;18.90;47.50;;;;;;4939317;29;20242;-75
2023/03/06 12:54:53;;;;;;;2.10;1.90;;;18.20;48.60;;;;;;4941631;28;20244;-75
2023/03/06 12:57:22;;;;;;;1.75;1.65;;;17.70;49.10;;;;;;4988559;28;20197;-75
2023/03/06 12:59:48;;;;;;;1.65;1.65;;;17.50;49.70;;;;;;4987625;28;20189;-76
2023/03/06 13:02:52;;;;;;;2.10;2.03;;;17.30;49.90;;;;;;4987608;28;20201;-75
2023/03/06 13:05:39;;;;;;;2.80;1.92;;;16.70;48.50;;;;;;4991974;28;20189;-76
2023/03/06 13:08:07;;;;;;;1.75;1.65;;;16.00;50.10;;;;;;4986011;28;20213;-76
2023/03/06 13:10:34;;;;;;;1.73;1.63;;;15.50;51.30;;;;;;4994201;28;20209;-76